sensor_id;sensor_type;location;lat;lon;timestamp;pressure;altitude;pressure_sealevel;temperature;humidity
70571;BME280;58135;50.948;-1.458;2023-01-26T00:00:05;102574.78;;;6.87;38.17
70571;BME280;58135;50.948;-1.458;2023-01-26T00:01:07;102575.19;;;6.90;38.14
70571;BME280;58135;50.948;-1.458;2023-01-26T00:02:04;102578.14;;;6.91;37.99
70571;BME280;58135;50.948;-1.458;2023-01-26T00:03:04;102579.44;;;7.41;37.99
70571;BME280;58135;50.948;-1.458;2023-01-26T00:04:04;102576.57;;;7.61;37.95
70571;BME280;58135;50.948;-1.458;2023-01-26T00:05:05;102575.64;;;7.07;38.14
70571;BME280;58135;50.948;-1.458;2023-01-26T00:06:07;102578.25;;;7.14;38.10
70571;BME280;58135;50.948;-1.458;2023-01-26T00:07:05;102570.51;;;6.79;38.29
70571;BME280;58135;50.948;-1.458;2023-01-26T00:08:06;102567.44;;;7.17;38.45
70571;BME280;58135;50.948;-1.458;2023-01-26T00:09:06;102566.17;;;7.02;38.65
70571;BME280;58135;50.948;-1.458;2023-01-26T00:10:06;102570.61;;;6.66;38.64
70571;BME280;58135;50.948;-1.458;2023-01-26T00:11:07;102571.14;;;6.80;38.51
70571;BME280;58135;50.948;-1.458;2023-01-26T00:12:07;102570.95;;;7.15;38.39
70571;BME280;58135;50.948;-1.458;2023-01-26T00:13:09;102573.81;;;6.69;38.46
70571;BME280;58135;50.948;-1.458;2023-01-26T00:14:07;102570.62;;;7.24;38.40
70571;BME280;58135;50.948;-1.458;2023-01-26T00:15:07;102568.06;;;6.89;38.34
70571;BME280;58135;50.948;-1.458;2023-01-26T00:16:09;102567.33;;;7.38;38.09
70571;BME280;58135;50.948;-1.458;2023-01-26T00:17:07;102565.08;;;6.65;38.31
70571;BME280;58135;50.948;-1.458;2023-01-26T00:18:08;102560.35;;;6.95;38.39
70571;BME280;58135;50.948;-1.458;2023-01-26T00:19:08;102563.61;;;6.97;38.49
70571;BME280;58135;50.948;-1.458;2023-01-26T00:20:10;102564.86;;;6.77;38.65
70571;BME280;58135;50.948;-1.458;2023-01-26T00:21:12;102566.35;;;6.79;38.56
70571;BME280;58135;50.948;-1.458;2023-01-26T00:22:09;102569.38;;;6.78;38.55
70571;BME280;58135;50.948;-1.458;2023-01-26T00:23:10;102569.15;;;6.36;39.02
70571;BME280;58135;50.948;-1.458;2023-01-26T00:24:10;102571.59;;;6.64;38.79
70571;BME280;58135;50.948;-1.458;2023-01-26T00:25:10;102569.17;;;6.84;38.60
70571;BME280;58135;50.948;-1.458;2023-01-26T00:26:13;102573.52;;;6.77;38.65
70571;BME280;58135;50.948;-1.458;2023-01-26T00:27:11;102579.38;;;6.80;38.55
70571;BME280;58135;50.948;-1.458;2023-01-26T00:28:11;102576.67;;;6.37;38.60
70571;BME280;58135;50.948;-1.458;2023-01-26T00:29:12;102574.76;;;6.66;38.77
70571;BME280;58135;50.948;-1.458;2023-01-26T00:31:14;102580.98;;;6.20;38.70
70571;BME280;58135;50.948;-1.458;2023-01-26T00:32:13;102580.47;;;5.88;39.01
70571;BME280;58135;50.948;-1.458;2023-01-26T00:33:14;102580.70;;;6.52;38.99
70571;BME280;58135;50.948;-1.458;2023-01-26T00:34:14;102579.77;;;6.14;39.22
70571;BME280;58135;50.948;-1.458;2023-01-26T00:35:15;102576.55;;;5.99;39.48
70571;BME280;58135;50.948;-1.458;2023-01-26T00:36:15;102579.92;;;6.26;39.31
70571;BME280;58135;50.948;-1.458;2023-01-26T00:37:16;102578.57;;;6.97;38.97
70571;BME280;58135;50.948;-1.458;2023-01-26T00:38:16;102575.80;;;6.60;38.84
70571;BME280;58135;50.948;-1.458;2023-01-26T00:39:16;102579.02;;;6.74;38.70
70571;BME280;58135;50.948;-1.458;2023-01-26T00:40:17;102575.45;;;6.83;38.57
70571;BME280;58135;50.948;-1.458;2023-01-26T00:41:17;102575.87;;;6.45;38.45
70571;BME280;58135;50.948;-1.458;2023-01-26T00:42:17;102579.65;;;6.82;38.48
70571;BME280;58135;50.948;-1.458;2023-01-26T00:43:18;102580.34;;;6.88;38.45
70571;BME280;58135;50.948;-1.458;2023-01-26T00:44:18;102580.52;;;6.85;38.45
70571;BME280;58135;50.948;-1.458;2023-01-26T00:45:19;102582.43;;;6.31;38.41
70571;BME280;58135;50.948;-1.458;2023-01-26T00:46:19;102584.38;;;6.80;38.46
70571;BME280;58135;50.948;-1.458;2023-01-26T00:47:19;102579.42;;;6.26;38.53
70571;BME280;58135;50.948;-1.458;2023-01-26T00:48:19;102583.80;;;6.69;38.46
70571;BME280;58135;50.948;-1.458;2023-01-26T00:49:19;102579.32;;;6.55;38.66
70571;BME280;58135;50.948;-1.458;2023-01-26T00:50:20;102576.93;;;6.58;38.72
70571;BME280;58135;50.948;-1.458;2023-01-26T00:51:20;102580.68;;;6.41;38.88
70571;BME280;58135;50.948;-1.458;2023-01-26T00:52:21;102577.43;;;6.60;38.67
70571;BME280;58135;50.948;-1.458;2023-01-26T00:53:21;102582.13;;;6.63;38.61
70571;BME280;58135;50.948;-1.458;2023-01-26T00:54:22;102579.54;;;6.43;38.80
70571;BME280;58135;50.948;-1.458;2023-01-26T00:55:22;102578.17;;;6.43;38.89
70571;BME280;58135;50.948;-1.458;2023-01-26T00:56:22;102578.95;;;6.00;39.23
70571;BME280;58135;50.948;-1.458;2023-01-26T00:57:23;102576.58;;;5.90;39.43
70571;BME280;58135;50.948;-1.458;2023-01-26T00:58:23;102574.63;;;5.75;39.19
70571;BME280;58135;50.948;-1.458;2023-01-26T00:59:23;102569.43;;;6.91;38.95
70571;BME280;58135;50.948;-1.458;2023-01-26T01:00:25;102572.52;;;6.38;38.95
70571;BME280;58135;50.948;-1.458;2023-01-26T01:01:25;102571.81;;;6.29;39.33
70571;BME280;58135;50.948;-1.458;2023-01-26T01:02:25;102570.03;;;6.32;39.31
70571;BME280;58135;50.948;-1.458;2023-01-26T01:03:25;102568.73;;;6.46;39.27
70571;BME280;58135;50.948;-1.458;2023-01-26T01:04:26;102563.46;;;6.56;39.10
70571;BME280;58135;50.948;-1.458;2023-01-26T01:05:29;102570.64;;;6.22;39.04
70571;BME280;58135;50.948;-1.458;2023-01-26T01:06:27;102561.43;;;6.26;39.02
70571;BME280;58135;50.948;-1.458;2023-01-26T01:07:27;102565.17;;;6.43;38.91
70571;BME280;58135;50.948;-1.458;2023-01-26T01:08:27;102564.83;;;6.50;38.70
70571;BME280;58135;50.948;-1.458;2023-01-26T01:09:28;102561.53;;;6.29;38.83
70571;BME280;58135;50.948;-1.458;2023-01-26T01:10:28;102565.98;;;6.43;38.76
70571;BME280;58135;50.948;-1.458;2023-01-26T01:11:28;102567.05;;;6.49;38.65
70571;BME280;58135;50.948;-1.458;2023-01-26T01:12:28;102568.43;;;6.99;38.61
70571;BME280;58135;50.948;-1.458;2023-01-26T01:13:29;102566.40;;;6.42;38.50
70571;BME280;58135;50.948;-1.458;2023-01-26T01:14:29;102565.27;;;7.25;38.70
70571;BME280;58135;50.948;-1.458;2023-01-26T01:15:30;102574.71;;;6.41;38.67
70571;BME280;58135;50.948;-1.458;2023-01-26T01:16:31;102571.62;;;6.39;38.64
70571;BME280;58135;50.948;-1.458;2023-01-26T01:17:31;102566.07;;;6.08;38.53
70571;BME280;58135;50.948;-1.458;2023-01-26T01:18:32;102566.36;;;6.67;38.35
70571;BME280;58135;50.948;-1.458;2023-01-26T01:19:32;102565.63;;;6.31;38.25
70571;BME280;58135;50.948;-1.458;2023-01-26T01:20:33;102562.12;;;6.76;38.16
70571;BME280;58135;50.948;-1.458;2023-01-26T01:21:33;102565.99;;;6.80;37.97
70571;BME280;58135;50.948;-1.458;2023-01-26T01:22:34;102564.20;;;6.77;38.02
70571;BME280;58135;50.948;-1.458;2023-01-26T01:23:33;102569.35;;;6.75;37.97
70571;BME280;58135;50.948;-1.458;2023-01-26T01:24:34;102571.60;;;6.65;38.03
70571;BME280;58135;50.948;-1.458;2023-01-26T01:25:34;102576.66;;;6.58;38.07
70571;BME280;58135;50.948;-1.458;2023-01-26T01:26:35;102579.33;;;6.08;38.05
70571;BME280;58135;50.948;-1.458;2023-01-26T01:27:35;102579.35;;;6.56;38.16
70571;BME280;58135;50.948;-1.458;2023-01-26T01:28:35;102581.52;;;6.61;38.11
70571;BME280;58135;50.948;-1.458;2023-01-26T01:29:36;102586.32;;;6.76;38.00
70571;BME280;58135;50.948;-1.458;2023-01-26T01:30:36;102582.85;;;6.79;37.80
70571;BME280;58135;50.948;-1.458;2023-01-26T01:31:36;102582.71;;;6.85;37.79
70571;BME280;58135;50.948;-1.458;2023-01-26T01:32:37;102579.62;;;7.00;37.69
70571;BME280;58135;50.948;-1.458;2023-01-26T01:33:37;102581.77;;;6.67;37.53
70571;BME280;58135;50.948;-1.458;2023-01-26T01:34:37;102577.22;;;7.08;37.40
70571;BME280;58135;50.948;-1.458;2023-01-26T01:35:37;102585.99;;;6.95;37.40
70571;BME280;58135;50.948;-1.458;2023-01-26T01:36:37;102585.60;;;6.84;37.54
70571;BME280;58135;50.948;-1.458;2023-01-26T01:37:38;102586.75;;;6.74;37.59
70571;BME280;58135;50.948;-1.458;2023-01-26T01:38:38;102588.96;;;6.76;37.61
70571;BME280;58135;50.948;-1.458;2023-01-26T01:39:38;102590.35;;;6.78;37.56
70571;BME280;58135;50.948;-1.458;2023-01-26T01:40:41;102589.99;;;6.35;37.88
70571;BME280;58135;50.948;-1.458;2023-01-26T01:41:39;102589.05;;;6.56;37.77
70571;BME280;58135;50.948;-1.458;2023-01-26T01:42:45;102586.46;;;6.59;37.80
70571;BME280;58135;50.948;-1.458;2023-01-26T01:43:40;102588.10;;;6.61;37.70
70571;BME280;58135;50.948;-1.458;2023-01-26T01:44:42;102583.81;;;6.46;37.73
70571;BME280;58135;50.948;-1.458;2023-01-26T01:45:42;102587.96;;;6.54;37.84
70571;BME280;58135;50.948;-1.458;2023-01-26T01:46:44;102583.62;;;6.65;37.73
70571;BME280;58135;50.948;-1.458;2023-01-26T01:47:40;102586.22;;;5.95;37.78
70571;BME280;58135;50.948;-1.458;2023-01-26T01:48:46;102582.33;;;6.60;37.67
70571;BME280;58135;50.948;-1.458;2023-01-26T01:49:44;102582.84;;;6.66;37.62
70571;BME280;58135;50.948;-1.458;2023-01-26T01:50:41;102586.35;;;6.75;37.57
70571;BME280;58135;50.948;-1.458;2023-01-26T01:51:44;102584.45;;;6.63;37.54
70571;BME280;58135;50.948;-1.458;2023-01-26T01:52:41;102586.09;;;6.68;37.46
70571;BME280;58135;50.948;-1.458;2023-01-26T01:53:44;102587.08;;;6.70;37.51
70571;BME280;58135;50.948;-1.458;2023-01-26T01:54:45;102589.97;;;6.75;37.42
70571;BME280;58135;50.948;-1.458;2023-01-26T01:55:43;102593.68;;;6.21;37.36
70571;BME280;58135;50.948;-1.458;2023-01-26T01:56:46;102595.60;;;6.55;37.43
70571;BME280;58135;50.948;-1.458;2023-01-26T01:57:46;102596.84;;;6.28;37.64
70571;BME280;58135;50.948;-1.458;2023-01-26T01:58:44;102594.76;;;6.27;37.77
70571;BME280;58135;50.948;-1.458;2023-01-26T01:59:48;102595.40;;;6.62;37.78
70571;BME280;58135;50.948;-1.458;2023-01-26T02:00:44;102594.38;;;6.13;37.89
70571;BME280;58135;50.948;-1.458;2023-01-26T02:01:45;102594.31;;;6.62;37.95
70571;BME280;58135;50.948;-1.458;2023-01-26T02:02:49;102591.77;;;6.67;37.89
70571;BME280;58135;50.948;-1.458;2023-01-26T02:03:47;102593.56;;;6.27;37.74
70571;BME280;58135;50.948;-1.458;2023-01-26T02:04:46;102596.97;;;6.17;37.82
70571;BME280;58135;50.948;-1.458;2023-01-26T02:05:53;102596.71;;;6.12;37.74
70571;BME280;58135;50.948;-1.458;2023-01-26T02:06:49;102594.54;;;6.11;37.87
70571;BME280;58135;50.948;-1.458;2023-01-26T02:07:48;102596.02;;;6.13;37.87
70571;BME280;58135;50.948;-1.458;2023-01-26T02:08:50;102599.11;;;5.60;37.87
70571;BME280;58135;50.948;-1.458;2023-01-26T02:09:48;102595.50;;;6.19;37.73
70571;BME280;58135;50.948;-1.458;2023-01-26T02:10:49;102595.18;;;6.96;37.84
70571;BME280;58135;50.948;-1.458;2023-01-26T02:11:48;102594.85;;;6.04;37.84
70571;BME280;58135;50.948;-1.458;2023-01-26T02:12:51;102594.53;;;6.04;37.82
70571;BME280;58135;50.948;-1.458;2023-01-26T02:13:49;102594.77;;;6.13;37.84
70571;BME280;58135;50.948;-1.458;2023-01-26T02:14:51;102594.67;;;6.32;37.67
70571;BME280;58135;50.948;-1.458;2023-01-26T02:15:50;102593.09;;;6.96;37.50
70571;BME280;58135;50.948;-1.458;2023-01-26T02:16:50;102597.40;;;6.51;37.26
70571;BME280;58135;50.948;-1.458;2023-01-26T02:17:50;102597.99;;;7.48;37.30
70571;BME280;58135;50.948;-1.458;2023-01-26T02:18:50;102599.19;;;6.64;37.21
70571;BME280;58135;50.948;-1.458;2023-01-26T02:19:57;102597.97;;;6.74;37.11
70571;BME280;58135;50.948;-1.458;2023-01-26T02:20:53;102596.70;;;6.78;36.98
70571;BME280;58135;50.948;-1.458;2023-01-26T02:21:53;102598.39;;;7.31;36.93
70571;BME280;58135;50.948;-1.458;2023-01-26T02:22:56;102597.30;;;6.93;36.84
70571;BME280;58135;50.948;-1.458;2023-01-26T02:24:02;102599.83;;;6.97;36.72
70571;BME280;58135;50.948;-1.458;2023-01-26T02:24:54;102598.97;;;7.01;36.62
70571;BME280;58135;50.948;-1.458;2023-01-26T02:26:04;102602.05;;;6.57;36.53
70571;BME280;58135;50.948;-1.458;2023-01-26T02:26:53;102603.48;;;7.00;36.54
70571;BME280;58135;50.948;-1.458;2023-01-26T02:27:53;102606.87;;;6.94;36.44
70571;BME280;58135;50.948;-1.458;2023-01-26T02:28:54;102601.98;;;6.87;36.60
70571;BME280;58135;50.948;-1.458;2023-01-26T02:29:55;102606.95;;;6.45;36.59
70571;BME280;58135;50.948;-1.458;2023-01-26T02:30:55;102605.67;;;6.89;36.46
70571;BME280;58135;50.948;-1.458;2023-01-26T02:31:55;102605.99;;;6.94;36.50
70571;BME280;58135;50.948;-1.458;2023-01-26T02:32:55;102604.87;;;6.52;36.38
70571;BME280;58135;50.948;-1.458;2023-01-26T02:33:55;102602.11;;;6.98;36.45
70571;BME280;58135;50.948;-1.458;2023-01-26T02:34:56;102605.18;;;6.70;36.39
70571;BME280;58135;50.948;-1.458;2023-01-26T02:35:56;102603.97;;;6.68;36.55
70571;BME280;58135;50.948;-1.458;2023-01-26T02:36:57;102605.39;;;6.75;36.57
70571;BME280;58135;50.948;-1.458;2023-01-26T02:37:57;102606.20;;;6.37;36.49
70571;BME280;58135;50.948;-1.458;2023-01-26T02:40:01;102607.05;;;6.84;36.31
70571;BME280;58135;50.948;-1.458;2023-01-26T02:41:01;102605.62;;;6.29;36.38
70571;BME280;58135;50.948;-1.458;2023-01-26T02:41:58;102607.86;;;6.57;36.44
70571;BME280;58135;50.948;-1.458;2023-01-26T02:42:59;102607.54;;;6.56;36.55
70571;BME280;58135;50.948;-1.458;2023-01-26T02:44:00;102606.86;;;6.62;36.46
70571;BME280;58135;50.948;-1.458;2023-01-26T02:45:00;102603.86;;;6.54;36.40
70571;BME280;58135;50.948;-1.458;2023-01-26T02:46:00;102608.30;;;6.59;36.42
70571;BME280;58135;50.948;-1.458;2023-01-26T02:47:00;102610.75;;;6.21;36.40
70571;BME280;58135;50.948;-1.458;2023-01-26T02:48:00;102612.40;;;6.73;36.32
70571;BME280;58135;50.948;-1.458;2023-01-26T02:49:00;102609.96;;;6.70;36.24
70571;BME280;58135;50.948;-1.458;2023-01-26T02:50:01;102610.05;;;6.16;36.32
70571;BME280;58135;50.948;-1.458;2023-01-26T02:51:02;102611.44;;;6.68;36.29
70571;BME280;58135;50.948;-1.458;2023-01-26T02:52:03;102615.97;;;6.69;36.20
70571;BME280;58135;50.948;-1.458;2023-01-26T02:53:03;102615.85;;;6.72;36.15
70571;BME280;58135;50.948;-1.458;2023-01-26T02:54:03;102616.64;;;7.09;36.13
70571;BME280;58135;50.948;-1.458;2023-01-26T02:55:04;102617.18;;;6.57;36.11
70571;BME280;58135;50.948;-1.458;2023-01-26T02:56:05;102618.77;;;6.50;36.16
70571;BME280;58135;50.948;-1.458;2023-01-26T02:57:04;102622.47;;;6.49;36.25
70571;BME280;58135;50.948;-1.458;2023-01-26T02:58:05;102624.01;;;6.42;36.34
70571;BME280;58135;50.948;-1.458;2023-01-26T02:59:05;102625.17;;;6.43;36.36
70571;BME280;58135;50.948;-1.458;2023-01-26T03:00:08;102623.04;;;6.46;36.26
70571;BME280;58135;50.948;-1.458;2023-01-26T03:01:06;102623.44;;;6.50;36.26
70571;BME280;58135;50.948;-1.458;2023-01-26T03:02:06;102626.39;;;6.53;36.16
70571;BME280;58135;50.948;-1.458;2023-01-26T03:03:10;102621.72;;;6.43;36.03
70571;BME280;58135;50.948;-1.458;2023-01-26T03:04:07;102620.69;;;6.33;36.14
70571;BME280;58135;50.948;-1.458;2023-01-26T03:05:07;102619.75;;;6.29;36.24
70571;BME280;58135;50.948;-1.458;2023-01-26T03:06:09;102618.46;;;6.20;36.26
70571;BME280;58135;50.948;-1.458;2023-01-26T03:07:08;102617.81;;;6.18;36.38
70571;BME280;58135;50.948;-1.458;2023-01-26T03:08:08;102620.84;;;6.22;36.27
70571;BME280;58135;50.948;-1.458;2023-01-26T03:09:09;102620.75;;;6.28;36.30
70571;BME280;58135;50.948;-1.458;2023-01-26T03:10:10;102625.87;;;6.39;36.20
70571;BME280;58135;50.948;-1.458;2023-01-26T03:11:09;102621.61;;;6.39;36.08
70571;BME280;58135;50.948;-1.458;2023-01-26T03:12:09;102620.15;;;6.28;36.06
70571;BME280;58135;50.948;-1.458;2023-01-26T03:13:10;102620.70;;;6.30;36.10
70571;BME280;58135;50.948;-1.458;2023-01-26T03:14:11;102615.27;;;6.30;36.05
70571;BME280;58135;50.948;-1.458;2023-01-26T03:15:10;102617.31;;;6.30;36.04
70571;BME280;58135;50.948;-1.458;2023-01-26T03:16:11;102618.04;;;6.15;36.06
70571;BME280;58135;50.948;-1.458;2023-01-26T03:17:12;102618.63;;;6.13;36.20
70571;BME280;58135;50.948;-1.458;2023-01-26T03:18:14;102620.31;;;6.16;36.13
70571;BME280;58135;50.948;-1.458;2023-01-26T03:19:13;102621.24;;;6.04;36.21
70571;BME280;58135;50.948;-1.458;2023-01-26T03:20:12;102614.19;;;6.03;36.23
70571;BME280;58135;50.948;-1.458;2023-01-26T03:21:15;102614.97;;;6.10;36.25
70571;BME280;58135;50.948;-1.458;2023-01-26T03:22:13;102615.58;;;5.95;36.23
70571;BME280;58135;50.948;-1.458;2023-01-26T03:23:14;102619.59;;;5.92;36.26
70571;BME280;58135;50.948;-1.458;2023-01-26T03:24:14;102616.12;;;5.95;36.26
70571;BME280;58135;50.948;-1.458;2023-01-26T03:25:14;102615.23;;;6.51;36.31
70571;BME280;58135;50.948;-1.458;2023-01-26T03:26:14;102612.84;;;6.21;36.12
70571;BME280;58135;50.948;-1.458;2023-01-26T03:27:15;102618.18;;;6.01;35.93
70571;BME280;58135;50.948;-1.458;2023-01-26T03:28:15;102617.14;;;6.02;36.34
70571;BME280;58135;50.948;-1.458;2023-01-26T03:29:15;102620.13;;;6.47;36.49
70571;BME280;58135;50.948;-1.458;2023-01-26T03:30:17;102619.66;;;5.78;36.56
70571;BME280;58135;50.948;-1.458;2023-01-26T03:31:16;102620.06;;;6.40;36.69
70571;BME280;58135;50.948;-1.458;2023-01-26T03:32:16;102622.07;;;6.17;36.61
70571;BME280;58135;50.948;-1.458;2023-01-26T03:33:18;102620.61;;;6.36;36.33
70571;BME280;58135;50.948;-1.458;2023-01-26T03:34:17;102615.75;;;6.88;36.13
70571;BME280;58135;50.948;-1.458;2023-01-26T03:35:18;102618.43;;;6.00;36.13
70571;BME280;58135;50.948;-1.458;2023-01-26T03:36:18;102620.52;;;6.12;36.05
70571;BME280;58135;50.948;-1.458;2023-01-26T03:37:18;102620.67;;;6.20;35.79
70571;BME280;58135;50.948;-1.458;2023-01-26T03:38:19;102621.77;;;6.15;35.81
70571;BME280;58135;50.948;-1.458;2023-01-26T03:39:19;102623.76;;;6.14;35.72
70571;BME280;58135;50.948;-1.458;2023-01-26T03:40:19;102624.22;;;7.02;35.80
70571;BME280;58135;50.948;-1.458;2023-01-26T03:41:19;102617.37;;;6.63;35.71
70571;BME280;58135;50.948;-1.458;2023-01-26T03:42:20;102619.50;;;6.59;35.68
70571;BME280;58135;50.948;-1.458;2023-01-26T03:43:20;102617.18;;;5.99;35.74
70571;BME280;58135;50.948;-1.458;2023-01-26T03:44:20;102620.91;;;6.78;35.85
70571;BME280;58135;50.948;-1.458;2023-01-26T03:45:21;102624.94;;;5.93;35.90
70571;BME280;58135;50.948;-1.458;2023-01-26T03:46:20;102630.71;;;5.75;35.87
70571;BME280;58135;50.948;-1.458;2023-01-26T03:47:20;102630.30;;;5.62;36.03
70571;BME280;58135;50.948;-1.458;2023-01-26T03:48:21;102631.41;;;6.52;36.14
70571;BME280;58135;50.948;-1.458;2023-01-26T03:49:21;102630.88;;;6.54;36.07
70571;BME280;58135;50.948;-1.458;2023-01-26T03:50:21;102631.63;;;6.55;36.10
70571;BME280;58135;50.948;-1.458;2023-01-26T03:51:21;102637.12;;;5.78;36.04
70571;BME280;58135;50.948;-1.458;2023-01-26T03:52:22;102637.92;;;5.84;35.88
70571;BME280;58135;50.948;-1.458;2023-01-26T03:53:23;102638.80;;;5.86;35.93
70571;BME280;58135;50.948;-1.458;2023-01-26T03:54:22;102637.01;;;5.90;35.84
70571;BME280;58135;50.948;-1.458;2023-01-26T03:55:23;102638.24;;;6.35;35.89
70571;BME280;58135;50.948;-1.458;2023-01-26T03:56:23;102633.95;;;6.56;35.90
70571;BME280;58135;50.948;-1.458;2023-01-26T03:57:24;102634.39;;;6.56;36.05
70571;BME280;58135;50.948;-1.458;2023-01-26T03:58:24;102635.96;;;5.78;36.04
70571;BME280;58135;50.948;-1.458;2023-01-26T03:59:25;102640.11;;;6.83;35.86
70571;BME280;58135;50.948;-1.458;2023-01-26T04:00:25;102641.72;;;6.01;35.74
70571;BME280;58135;50.948;-1.458;2023-01-26T04:01:25;102641.69;;;6.91;35.58
70571;BME280;58135;50.948;-1.458;2023-01-26T04:02:25;102640.60;;;5.99;35.64
70571;BME280;58135;50.948;-1.458;2023-01-26T04:03:26;102641.79;;;5.83;35.52
70571;BME280;58135;50.948;-1.458;2023-01-26T04:04:26;102638.40;;;6.13;35.82
70571;BME280;58135;50.948;-1.458;2023-01-26T04:05:27;102641.14;;;6.59;35.94
70571;BME280;58135;50.948;-1.458;2023-01-26T04:06:27;102642.46;;;6.25;35.97
70571;BME280;58135;50.948;-1.458;2023-01-26T04:07:27;102643.76;;;5.95;35.80
70571;BME280;58135;50.948;-1.458;2023-01-26T04:08:27;102642.37;;;6.01;35.66
70571;BME280;58135;50.948;-1.458;2023-01-26T04:09:28;102641.93;;;5.96;35.62
70571;BME280;58135;50.948;-1.458;2023-01-26T04:10:28;102644.12;;;6.83;35.56
70571;BME280;58135;50.948;-1.458;2023-01-26T04:11:28;102643.82;;;5.93;35.62
70571;BME280;58135;50.948;-1.458;2023-01-26T04:12:29;102640.46;;;6.57;35.72
70571;BME280;58135;50.948;-1.458;2023-01-26T04:13:29;102638.15;;;5.64;35.84
70571;BME280;58135;50.948;-1.458;2023-01-26T04:14:30;102639.56;;;5.70;35.79
70571;BME280;58135;50.948;-1.458;2023-01-26T04:15:30;102640.06;;;6.25;35.69
70571;BME280;58135;50.948;-1.458;2023-01-26T04:16:31;102642.14;;;6.32;35.70
70571;BME280;58135;50.948;-1.458;2023-01-26T04:17:31;102639.69;;;5.86;35.62
70571;BME280;58135;50.948;-1.458;2023-01-26T04:18:31;102643.84;;;5.87;35.66
70571;BME280;58135;50.948;-1.458;2023-01-26T04:19:32;102646.31;;;6.35;35.58
70571;BME280;58135;50.948;-1.458;2023-01-26T04:20:33;102647.04;;;6.82;35.60
70571;BME280;58135;50.948;-1.458;2023-01-26T04:21:33;102648.85;;;5.91;35.52
70571;BME280;58135;50.948;-1.458;2023-01-26T04:22:35;102647.43;;;6.00;35.52
70571;BME280;58135;50.948;-1.458;2023-01-26T04:23:34;102650.74;;;6.12;35.42
70571;BME280;58135;50.948;-1.458;2023-01-26T04:24:34;102647.08;;;6.47;35.32
70571;BME280;58135;50.948;-1.458;2023-01-26T04:25:34;102649.91;;;6.00;35.35
70571;BME280;58135;50.948;-1.458;2023-01-26T04:26:35;102650.01;;;6.46;35.32
70571;BME280;58135;50.948;-1.458;2023-01-26T04:27:35;102647.42;;;6.06;35.33
70571;BME280;58135;50.948;-1.458;2023-01-26T04:28:35;102647.33;;;6.58;35.31
70571;BME280;58135;50.948;-1.458;2023-01-26T04:29:36;102646.70;;;6.18;35.19
70571;BME280;58135;50.948;-1.458;2023-01-26T04:30:36;102648.74;;;6.68;35.13
70571;BME280;58135;50.948;-1.458;2023-01-26T04:31:37;102649.04;;;6.29;35.09
70571;BME280;58135;50.948;-1.458;2023-01-26T04:32:36;102648.75;;;6.73;34.87
70571;BME280;58135;50.948;-1.458;2023-01-26T04:33:36;102650.19;;;6.24;35.01
70571;BME280;58135;50.948;-1.458;2023-01-26T04:34:37;102650.72;;;6.32;34.94
70571;BME280;58135;50.948;-1.458;2023-01-26T04:35:37;102650.16;;;6.23;34.94
70571;BME280;58135;50.948;-1.458;2023-01-26T04:36:38;102653.12;;;5.80;34.98
70571;BME280;58135;50.948;-1.458;2023-01-26T04:37:38;102655.78;;;6.29;34.86
70571;BME280;58135;50.948;-1.458;2023-01-26T04:38:38;102655.88;;;6.25;34.84
70571;BME280;58135;50.948;-1.458;2023-01-26T04:39:39;102658.55;;;6.26;34.85
70571;BME280;58135;50.948;-1.458;2023-01-26T04:40:39;102659.06;;;6.70;34.86
70571;BME280;58135;50.948;-1.458;2023-01-26T04:41:39;102658.86;;;7.20;34.80
70571;BME280;58135;50.948;-1.458;2023-01-26T04:42:39;102661.57;;;5.95;34.83
70571;BME280;58135;50.948;-1.458;2023-01-26T04:43:40;102661.14;;;6.47;34.72
70571;BME280;58135;50.948;-1.458;2023-01-26T04:44:40;102657.72;;;6.48;34.68
70571;BME280;58135;50.948;-1.458;2023-01-26T04:45:41;102660.00;;;6.97;34.62
70571;BME280;58135;50.948;-1.458;2023-01-26T04:46:40;102660.08;;;6.55;34.62
70571;BME280;58135;50.948;-1.458;2023-01-26T04:47:41;102662.40;;;6.59;34.45
70571;BME280;58135;50.948;-1.458;2023-01-26T04:48:41;102662.74;;;6.47;34.47
70571;BME280;58135;50.948;-1.458;2023-01-26T04:49:42;102663.76;;;6.43;34.52
70571;BME280;58135;50.948;-1.458;2023-01-26T04:50:42;102667.96;;;6.49;34.50
70571;BME280;58135;50.948;-1.458;2023-01-26T04:51:44;102666.54;;;6.46;34.48
70571;BME280;58135;50.948;-1.458;2023-01-26T04:52:43;102667.50;;;6.52;34.47
70571;BME280;58135;50.948;-1.458;2023-01-26T04:53:44;102665.17;;;6.53;34.42
70571;BME280;58135;50.948;-1.458;2023-01-26T04:54:49;102666.17;;;6.50;34.35
70571;BME280;58135;50.948;-1.458;2023-01-26T04:55:45;102668.77;;;6.85;34.40
70571;BME280;58135;50.948;-1.458;2023-01-26T04:56:45;102668.61;;;6.32;34.56
70571;BME280;58135;50.948;-1.458;2023-01-26T04:57:45;102666.41;;;6.32;34.60
70571;BME280;58135;50.948;-1.458;2023-01-26T04:58:45;102665.78;;;6.36;34.54
70571;BME280;58135;50.948;-1.458;2023-01-26T04:59:45;102669.05;;;6.29;34.53
70571;BME280;58135;50.948;-1.458;2023-01-26T05:00:50;102669.06;;;6.26;34.54
70571;BME280;58135;50.948;-1.458;2023-01-26T05:01:46;102667.27;;;6.19;34.54
70571;BME280;58135;50.948;-1.458;2023-01-26T05:02:48;102669.46;;;6.04;34.68
70571;BME280;58135;50.948;-1.458;2023-01-26T05:03:47;102668.88;;;5.93;34.82
70571;BME280;58135;50.948;-1.458;2023-01-26T05:04:47;102665.08;;;6.41;34.89
70571;BME280;58135;50.948;-1.458;2023-01-26T05:05:47;102667.21;;;7.00;34.84
70571;BME280;58135;50.948;-1.458;2023-01-26T05:06:48;102667.19;;;6.20;34.67
70571;BME280;58135;50.948;-1.458;2023-01-26T05:07:47;102664.40;;;6.09;34.64
70571;BME280;58135;50.948;-1.458;2023-01-26T05:08:47;102665.02;;;6.97;34.71
70571;BME280;58135;50.948;-1.458;2023-01-26T05:09:48;102662.53;;;6.50;34.72
70571;BME280;58135;50.948;-1.458;2023-01-26T05:10:48;102664.66;;;6.10;34.72
70571;BME280;58135;50.948;-1.458;2023-01-26T05:11:49;102662.67;;;7.02;34.70
70571;BME280;58135;50.948;-1.458;2023-01-26T05:12:49;102659.01;;;6.65;34.69
70571;BME280;58135;50.948;-1.458;2023-01-26T05:13:50;102659.78;;;6.27;34.57
70571;BME280;58135;50.948;-1.458;2023-01-26T05:14:50;102659.19;;;6.26;34.55
70571;BME280;58135;50.948;-1.458;2023-01-26T05:15:50;102661.47;;;6.15;34.57
70571;BME280;58135;50.948;-1.458;2023-01-26T05:16:50;102661.47;;;6.10;34.68